Time;durP1;ratioP1;P1;durP2;ratioP2;P2;SDS_P1;SDS_P2;PMS_P1;PMS_P2;Temp;Humidity;BMP_temperature;BMP_pressure;BME280_temperature;BME280_humidity;BME280_pressure;Samples;Min_cycle;Max_cycle;Signal;HPM_P1;HPM_P2
2023/06/18 00:01:48;;;;;;;;;;;;;;;25.89;40.87;100692.97;4172472;28;20430;-63
2023/06/18 00:03:50;;;;;;;;;;;;;;;25.89;40.77;100684.88;4113322;28;19949;-63
2023/06/18 00:05:54;;;;;;;;;;;;;;;25.88;40.91;100680.50;4135383;28;20305;-63
2023/06/18 00:07:56;;;;;;;;;;;;;;;25.88;40.87;100683.19;4149981;28;20252;-62
2023/06/18 00:09:58;;;;;;;;;;;;;;;25.88;40.68;100677.78;4112677;28;19969;-62
2023/06/18 00:12:00;;;;;;;;;;;;;;;25.87;40.76;100678.81;4134206;28;19926;-62
2023/06/18 00:14:01;;;;;;;;;;;;;;;25.87;40.75;100669.88;4097101;29;19926;-62
2023/06/18 00:16:03;;;;;;;;;;;;;;;25.87;40.78;100672.56;4120765;28;19966;-63
2023/06/18 00:18:05;;;;;;;;;;;;;;;25.85;41.04;100664.66;4158230;28;20013;-62
2023/06/18 00:20:07;;;;;;;;;;;;;;;25.85;40.83;100672.72;4112686;28;19930;-62
2023/06/18 00:22:09;;;;;;;;;;;;;;;25.84;41.03;100663.78;4168069;28;19974;-62
2023/06/18 00:24:10;;;;;;;;;;;;;;;25.84;40.71;100666.47;4120045;28;19932;-63
2023/06/18 00:26:12;;;;;;;;;;;;;;;25.83;41.04;100667.50;4120069;28;19980;-63
2023/06/18 00:28:14;;;;;;;;;;;;;;;25.83;40.93;100662.13;4141989;28;20031;-63
2023/06/18 00:30:16;;;;;;;;;;;;;;;25.82;40.77;100665.81;4196820;28;19928;-63
2023/06/18 00:32:17;;;;;;;;;;;;;;;25.82;40.89;100663.13;4149426;28;19926;-62
2023/06/18 00:34:20;;;;;;;;;;;;;;;25.81;40.89;100666.81;4180885;28;19924;-63
2023/06/18 00:36:26;;;;;;;;;;;;;;;25.81;40.81;100664.13;4189561;28;19969;-62
2023/06/18 00:38:28;;;;;;;;;;;;;;;25.81;41.00;100660.59;4138894;28;19924;-63
2023/06/18 00:40:30;;;;;;;;;;;;;;;25.81;40.97;100665.97;4196804;28;19928;-62
2023/06/18 00:42:32;;;;;;;;;;;;;;;25.80;40.75;100667.81;4154048;28;19930;-63
2023/06/18 00:44:33;;;;;;;;;;;;;;;25.80;40.81;100662.41;4176439;28;20445;-63
2023/06/18 00:46:36;;;;;;;;;;;;;;;25.81;40.67;100676.75;4189475;28;19929;-63
2023/06/18 00:48:37;;;;;;;;;;;;;;;25.80;40.71;100670.50;4138414;28;19928;-63
2023/06/18 00:50:40;;;;;;;;;;;;;;;25.79;41.01;100676.88;4196646;28;20011;-62
2023/06/18 00:52:44;;;;;;;;;;;;;;;25.80;41.06;100683.13;4161357;28;19930;-63
2023/06/18 00:54:46;;;;;;;;;;;;;;;25.78;40.80;100685.97;4170610;28;19964;-63
2023/06/18 00:56:53;;;;;;;;;;;;;;;25.79;40.67;100686.84;4189226;28;20374;-63
2023/06/18 00:58:57;;;;;;;;;;;;;;;25.78;40.61;100690.53;4138741;28;19991;-63
2023/06/18 01:00:59;;;;;;;;;;;;;;;25.78;40.65;100695.91;4196927;28;20317;-63
2023/06/18 01:03:02;;;;;;;;;;;;;;;25.78;41.06;100709.38;4162186;28;19926;-62
2023/06/18 01:05:06;;;;;;;;;;;;;;;25.78;41.02;100717.47;4169204;28;19925;-62
2023/06/18 01:07:13;;;;;;;;;;;;;;;25.78;40.92;100728.25;4189121;28;19925;-63
2023/06/18 01:09:19;;;;;;;;;;;;;;;25.77;41.09;100731.94;4138540;28;19928;-63
2023/06/18 01:11:21;;;;;;;;;;;;;;;25.77;40.65;100738.19;4196593;28;20431;-63
2023/06/18 01:13:25;;;;;;;;;;;;;;;25.77;40.79;100730.09;4161224;28;20037;-62
2023/06/18 01:15:26;;;;;;;;;;;;;;;25.77;40.80;100731.94;4170021;28;19978;-62
2023/06/18 01:17:33;;;;;;;;;;;;;;;25.74;40.84;100741.16;4189067;28;19966;-62
2023/06/18 01:19:43;;;;;;;;;;;;;;;25.74;40.97;100749.25;4138408;28;19939;-64
2023/06/18 01:21:47;;;;;;;;;;;;;;;25.74;40.98;100760.03;4198518;28;20003;-63
2023/06/18 01:24:03;;;;;;;;;;;;;;;25.73;41.18;100757.50;4161243;28;20390;-63
2023/06/18 01:26:05;;;;;;;;;;;;;;;25.71;41.25;100751.41;4185794;28;19971;-63
2023/06/18 01:28:07;;;;;;;;;;;;;;;25.70;41.26;100747.00;4124440;28;19971;-63
2023/06/18 01:30:11;;;;;;;;;;;;;;;25.69;41.02;100738.09;4171761;28;19926;-63
2023/06/18 01:32:12;;;;;;;;;;;;;;;25.67;41.01;100734.69;4114984;28;19960;-64
2023/06/18 01:34:14;;;;;;;;;;;;;;;25.66;41.06;100728.47;4157142;28;19998;-63
2023/06/18 01:36:26;;;;;;;;;;;;;;;25.66;41.05;100723.09;4135753;28;20338;-64
2023/06/18 01:38:33;;;;;;;;;;;;;;;25.65;41.37;100725.91;4121085;28;20390;-62
2023/06/18 01:40:41;;;;;;;;;;;;;;;25.63;41.38;100712.59;4142110;28;20351;-62
2023/06/18 01:42:48;;;;;;;;;;;;;;;25.62;41.38;100710.91;4199581;28;20444;-62
2023/06/18 01:44:52;;;;;;;;;;;;;;;25.62;41.16;100702.00;4146189;28;20013;-63
2023/06/18 01:46:54;;;;;;;;;;;;;;;25.62;41.27;100693.91;4190407;28;19928;-63
2023/06/18 01:48:57;;;;;;;;;;;;;;;25.61;41.46;100682.28;4190585;28;20386;-63
2023/06/18 01:50:59;;;;;;;;;;;;;;;25.60;41.12;100686.00;4144272;28;19979;-63
2023/06/18 01:53:02;;;;;;;;;;;;;;;25.60;41.52;100686.00;4199600;28;19925;-63
2023/06/18 01:55:05;;;;;;;;;;;;;;;25.59;41.49;100687.00;4151390;28;19933;-63
2023/06/18 01:57:07;;;;;;;;;;;;;;;25.59;41.63;100686.13;4185201;28;20386;-63
2023/06/18 01:59:08;;;;;;;;;;;;;;;25.58;41.49;100693.38;4190927;28;19926;-63
2023/06/18 02:01:11;;;;;;;;;;;;;;;25.59;41.36;100699.59;4141697;28;19955;-63
2023/06/18 02:03:12;;;;;;;;;;;;;;;25.58;41.55;100693.38;4199383;28;19924;-63
2023/06/18 02:05:14;;;;;;;;;;;;;;;25.58;41.85;100703.28;4158152;28;19941;-63
2023/06/18 02:07:16;;;;;;;;;;;;;;;25.58;41.75;100698.75;4177004;28;19978;-62
2023/06/18 02:09:17;;;;;;;;;;;;;;;25.57;41.63;100696.22;4190849;28;19938;-63
2023/06/18 02:11:19;;;;;;;;;;;;;;;25.56;42.13;100691.84;4141971;28;19934;-63
2023/06/18 02:13:20;;;;;;;;;;;;;;;25.55;42.04;100692.84;4199087;28;19929;-62
2023/06/18 02:15:22;;;;;;;;;;;;;;;25.56;41.79;100699.91;4167053;28;19930;-62
2023/06/18 02:17:24;;;;;;;;;;;;;;;25.54;42.03;100700.06;4167784;28;19935;-63
2023/06/18 02:19:26;;;;;;;;;;;;;;;25.55;41.90;100709.00;4193844;28;19929;-63
2023/06/18 02:21:28;;;;;;;;;;;;;;;25.55;42.10;100711.69;4139483;28;20025;-63
2023/06/18 02:23:30;;;;;;;;;;;;;;;25.55;42.27;100704.44;4198845;28;19991;-62
2023/06/18 02:25:32;;;;;;;;;;;;;;;25.54;42.02;100708.13;4174618;28;19930;-62
2023/06/18 02:27:33;;;;;;;;;;;;;;;25.54;42.27;100697.34;4159857;28;19977;-62
2023/06/18 02:29:35;;;;;;;;;;;;;;;25.52;42.24;100700.22;4197566;28;19932;-63
2023/06/18 02:31:37;;;;;;;;;;;;;;;25.52;42.17;100694.81;4135870;28;19958;-62
2023/06/18 02:33:38;;;;;;;;;;;;;;;25.51;42.37;100698.50;4196541;28;19971;-62
2023/06/18 02:35:40;;;;;;;;;;;;;;;25.52;42.16;100697.53;4183086;28;19924;-62
2023/06/18 02:37:42;;;;;;;;;;;;;;;25.51;42.43;100692.28;4150689;28;19924;-62
2023/06/18 02:39:43;;;;;;;;;;;;;;;25.50;42.40;100695.97;4197775;28;19959;-63
2023/06/18 02:41:45;;;;;;;;;;;;;;;25.51;42.53;100686.91;4144842;28;19930;-63
2023/06/18 02:43:50;;;;;;;;;;;;;;;25.50;42.41;100699.50;4189079;28;19970;-63
2023/06/18 02:45:52;;;;;;;;;;;;;;;25.50;42.44;100696.81;4189190;28;20275;-62
2023/06/18 02:47:54;;;;;;;;;;;;;;;25.50;42.48;100696.81;4144940;28;19959;-63
2023/06/18 02:49:55;;;;;;;;;;;;;;;25.49;42.66;100697.84;4196039;28;19966;-62
2023/06/18 02:51:57;;;;;;;;;;;;;;;25.49;42.66;100689.75;4128623;28;20260;-63
2023/06/18 02:53:59;;;;;;;;;;;;;;;25.48;42.54;100697.97;4182623;28;20117;-63
2023/06/18 02:56:01;;;;;;;;;;;;;;;25.48;42.87;100695.28;4191303;28;19927;-63
2023/06/18 02:58:02;;;;;;;;;;;;;;;25.48;42.81;100693.44;4141321;28;20398;-63
2023/06/18 03:00:05;;;;;;;;;;;;;;;25.47;42.63;100696.28;4197207;28;20274;-63
2023/06/18 03:02:07;;;;;;;;;;;;;;;25.47;42.73;100688.19;4158262;28;19933;-63
2023/06/18 03:04:10;;;;;;;;;;;;;;;25.48;42.65;100697.97;4176055;28;19932;-63
2023/06/18 03:06:11;;;;;;;;;;;;;;;25.47;43.09;100698.97;4190984;28;19933;-63
2023/06/18 03:08:13;;;;;;;;;;;;;;;25.46;42.84;100706.22;4141190;28;19978;-63
2023/06/18 03:10:15;;;;;;;;;;;;;;;25.46;42.75;100706.22;4197486;28;20039;-63
2023/06/18 03:12:16;;;;;;;;;;;;;;;25.46;43.18;100708.91;4165728;28;19966;-63
2023/06/18 03:14:21;;;;;;;;;;;;;;;25.45;43.12;100717.97;4166455;28;19925;-63
2023/06/18 03:16:26;;;;;;;;;;;;;;;25.46;43.18;100713.47;4191697;28;19925;-62
2023/06/18 03:18:28;;;;;;;;;;;;;;;25.45;43.23;100703.69;4167010;28;19925;-64
2023/06/18 03:20:30;;;;;;;;;;;;;;;25.44;43.12;100710.91;4113670;28;20391;-63
2023/06/18 03:22:32;;;;;;;;;;;;;;;25.44;43.20;100704.69;4141796;28;19924;-62
2023/06/18 03:24:34;;;;;;;;;;;;;;;25.44;43.14;100704.69;4147939;28;19930;-60
2023/06/18 03:26:36;;;;;;;;;;;;;;;25.43;43.38;100702.97;4113156;28;20293;-62
2023/06/18 03:28:38;;;;;;;;;;;;;;;25.42;43.45;100710.22;4133771;28;20303;-64
2023/06/18 03:30:41;;;;;;;;;;;;;;;25.42;43.18;100707.53;4197581;28;20006;-64
2023/06/18 03:32:43;;;;;;;;;;;;;;;25.42;43.14;100718.31;4176481;28;20656;-64
2023/06/18 03:34:48;;;;;;;;;;;;;;;25.42;43.41;100715.59;4156285;28;19932;-64
2023/06/18 03:36:50;;;;;;;;;;;;;;;25.41;43.53;100724.69;4197833;28;19925;-64
2023/06/18 03:38:51;;;;;;;;;;;;;;;25.41;43.29;100719.28;4134170;28;20145;-64
2023/06/18 03:40:53;;;;;;;;;;;;;;;25.42;43.61;100728.19;4197029;28;20370;-63
2023/06/18 03:42:55;;;;;;;;;;;;;;;25.40;43.62;100733.75;4181593;28;19928;-63
2023/06/18 03:44:56;;;;;;;;;;;;;;;25.40;43.69;100728.38;4149285;28;19986;-64
2023/06/18 03:46:58;;;;;;;;;;;;;;;25.32;43.47;100715.63;4197642;28;19956;-64
2023/06/18 03:48:59;;;;;;;;;;;;;;;25.39;43.43;100715.06;4143082;28;19926;-64
2023/06/18 03:51:01;;;;;;;;;;;;;;;25.39;43.37;100715.06;4188126;28;19925;-64
2023/06/18 03:53:02;;;;;;;;;;;;;;;25.37;43.71;100701.69;4190134;28;19931;-63
2023/06/18 03:55:06;;;;;;;;;;;;;;;25.36;43.68;100695.47;4168308;28;19926;-63
2023/06/18 03:57:08;;;;;;;;;;;;;;;25.37;43.63;100701.69;4113238;28;19929;-64
2023/06/18 03:59:10;;;;;;;;;;;;;;;25.37;43.52;100712.47;4158240;28;20005;-64
2023/06/18 04:01:12;;;;;;;;;;;;;;;25.36;43.82;100705.41;4129758;28;19926;-63
2023/06/18 04:03:13;;;;;;;;;;;;;;;25.36;43.58;100713.50;4120178;28;20028;-63
2023/06/18 04:05:15;;;;;;;;;;;;;;;25.36;43.71;100710.81;4169963;28;19934;-63
2023/06/18 04:07:17;;;;;;;;;;;;;;;25.35;44.00;100712.63;4113422;28;19930;-62
2023/06/18 04:09:18;;;;;;;;;;;;;;;25.35;44.00;100701.03;4149481;28;19924;-62
2023/06/18 04:11:21;;;;;;;;;;;;;;;25.33;43.72;100708.41;4137819;28;20003;-63
2023/06/18 04:13:23;;;;;;;;;;;;;;;25.33;43.71;100700.31;4120134;28;19932;-63
2023/06/18 04:15:25;;;;;;;;;;;;;;;25.33;43.84;100698.47;4111996;28;20474;-64
2023/06/18 04:17:26;;;;;;;;;;;;;;;25.32;43.99;100690.53;4112918;28;20397;-62
2023/06/18 04:19:28;;;;;;;;;;;;;;;25.31;43.99;100688.84;4141952;28;19924;-63
2023/06/18 04:21:30;;;;;;;;;;;;;;;25.31;44.05;100686.16;4145709;28;19926;-63
2023/06/18 04:23:31;;;;;;;;;;;;;;;25.30;43.83;100693.41;4114504;28;19926;-62
2023/06/18 04:25:33;;;;;;;;;;;;;;;25.30;43.88;100692.53;4173848;28;19932;-62
2023/06/18 04:27:36;;;;;;;;;;;;;;;25.29;43.87;100686.31;4112609;28;19926;-64
2023/06/18 04:29:38;;;;;;;;;;;;;;;25.30;43.96;100695.22;4133988;28;19931;-63
2023/06/18 04:31:40;;;;;;;;;;;;;;;25.29;44.14;100686.31;4153470;28;19926;-64
2023/06/18 04:33:41;;;;;;;;;;;;;;;25.29;43.98;100688.19;4112934;28;19933;-64
2023/06/18 04:35:45;;;;;;;;;;;;;;;25.29;44.06;100694.38;4173801;28;22641;-62
2023/06/18 04:37:47;;;;;;;;;;;;;;;25.28;44.23;100698.06;4113653;28;20112;-63
2023/06/18 04:39:48;;;;;;;;;;;;;;;25.29;43.94;100701.63;4126663;28;19932;-64
2023/06/18 04:41:50;;;;;;;;;;;;;;;25.27;44.22;100706.31;4160261;28;20415;-63
2023/06/18 04:43:51;;;;;;;;;;;;;;;25.28;44.15;100713.41;4111793;28;19926;-63
2023/06/18 04:45:54;;;;;;;;;;;;;;;25.27;44.30;100715.22;4165847;28;19928;-63
2023/06/18 04:47:56;;;;;;;;;;;;;;;25.27;44.15;100714.38;4121773;28;19930;-63
2023/06/18 04:49:57;;;;;;;;;;;;;;;25.26;44.18;100729.66;4118543;28;19973;-63
2023/06/18 04:51:59;;;;;;;;;;;;;;;25.26;44.36;100729.66;4130522;28;19931;-64
2023/06/18 04:54:01;;;;;;;;;;;;;;;25.26;44.16;100731.53;4196839;28;19924;-64
2023/06/18 04:56:02;;;;;;;;;;;;;;;25.26;44.08;100731.53;4150026;28;19934;-64
2023/06/18 04:58:04;;;;;;;;;;;;;;;25.25;44.18;100737.91;4111614;28;19926;-63
2023/06/18 05:00:08;;;;;;;;;;;;;;;25.24;44.01;100745.16;4118343;28;19924;-63
2023/06/18 05:02:10;;;;;;;;;;;;;;;25.25;44.39;100745.97;4169290;28;19965;-64
2023/06/18 05:04:11;;;;;;;;;;;;;;;25.24;44.20;100745.16;4112660;28;19926;-63
2023/06/18 05:06:13;;;;;;;;;;;;;;;25.24;44.49;100733.50;4150802;28;19962;-63
2023/06/18 05:08:15;;;;;;;;;;;;;;;25.25;44.44;100737.91;4137148;28;20025;-64
2023/06/18 05:10:16;;;;;;;;;;;;;;;25.24;44.29;100730.81;4118202;28;19930;-63
2023/06/18 05:12:18;;;;;;;;;;;;;;;25.22;43.88;100736.38;4169176;28;19924;-63
2023/06/18 05:14:19;;;;;;;;;;;;;;;25.23;44.09;100742.63;4111279;28;19926;-63
2023/06/18 05:16:21;;;;;;;;;;;;;;;25.22;44.08;100738.22;4141607;28;19925;-63
2023/06/18 05:18:22;;;;;;;;;;;;;;;25.21;44.25;100731.97;4146193;28;19926;-63
2023/06/18 05:20:24;;;;;;;;;;;;;;;25.22;44.27;100738.22;4112559;28;20013;-63
2023/06/18 05:22:26;;;;;;;;;;;;;;;25.21;44.10;100742.75;4173549;28;19929;-63
2023/06/18 05:24:27;;;;;;;;;;;;;;;25.20;44.33;100744.59;4111987;28;19926;-63
2023/06/18 05:26:31;;;;;;;;;;;;;;;25.20;43.96;100739.22;4120310;28;19926;-63
2023/06/18 05:28:32;;;;;;;;;;;;;;;25.19;44.52;100740.22;4155252;28;19935;-63
2023/06/18 05:30:34;;;;;;;;;;;;;;;25.19;44.08;100736.69;4195080;28;19925;-63
2023/06/18 05:32:35;;;;;;;;;;;;;;;25.19;44.17;100740.22;4136551;28;19935;-64
2023/06/18 05:34:37;;;;;;;;;;;;;;;25.18;44.51;100738.50;4193005;28;19947;-63
2023/06/18 05:36:38;;;;;;;;;;;;;;;25.17;44.15;100739.50;4183643;28;20309;-63
2023/06/18 05:38:40;;;;;;;;;;;;;;;25.17;44.05;100733.28;4145726;28;19975;-63
2023/06/18 05:40:41;;;;;;;;;;;;;;;25.16;44.59;100737.81;4195191;28;19924;-62
2023/06/18 05:42:43;;;;;;;;;;;;;;;25.16;44.35;100736.97;4145566;28;19933;-62
2023/06/18 05:44:45;;;;;;;;;;;;;;;25.16;44.45;100740.50;4183963;28;19932;-62
2023/06/18 05:46:46;;;;;;;;;;;;;;;25.16;44.05;100740.50;4189062;28;19924;-64
2023/06/18 05:48:48;;;;;;;;;;;;;;;25.16;44.10;100745.03;4139268;28;19925;-62
2023/06/18 05:50:49;;;;;;;;;;;;;;;25.16;44.46;100750.44;4195267;28;19931;-62
2023/06/18 05:52:51;;;;;;;;;;;;;;;25.15;44.13;100746.03;4154581;28;20283;-63
2023/06/18 05:54:52;;;;;;;;;;;;;;;25.14;44.40;100738.94;4174585;28;19924;-63
2023/06/18 05:56:54;;;;;;;;;;;;;;;25.13;44.38;100740.81;4188841;28;19947;-63
2023/06/18 05:58:55;;;;;;;;;;;;;;;25.14;44.18;100738.94;4138678;28;19928;-63
2023/06/18 06:00:57;;;;;;;;;;;;;;;25.14;44.42;100731.75;4194079;28;19931;-62
2023/06/18 06:02:58;;;;;;;;;;;;;;;25.14;44.49;100733.56;4163434;28;19940;-63
2023/06/18 06:05:00;;;;;;;;;;;;;;;25.13;44.33;100737.25;4165806;28;19931;-63
2023/06/18 06:07:02;;;;;;;;;;;;;;;25.12;44.25;100739.09;4192224;28;19967;-63
2023/06/18 06:09:03;;;;;;;;;;;;;;;25.12;44.55;100738.28;4139141;28;20013;-63
2023/06/18 06:11:05;;;;;;;;;;;;;;;25.12;44.42;100738.28;4198668;28;19971;-62
2023/06/18 06:13:06;;;;;;;;;;;;;;;25.12;44.29;100749.03;4175304;28;20387;-63
2023/06/18 06:15:09;;;;;;;;;;;;;;;25.11;44.26;100744.66;4159630;28;20340;-64
2023/06/18 06:17:11;;;;;;;;;;;;;;;25.11;44.64;100744.66;4197974;28;19975;-63
2023/06/18 06:19:12;;;;;;;;;;;;;;;25.11;44.29;100747.34;4135260;28;20402;-63
2023/06/18 06:21:14;;;;;;;;;;;;;;;25.11;44.54;100745.47;4198113;28;20065;-63
2023/06/18 06:23:15;;;;;;;;;;;;;;;25.11;44.29;100747.34;4183209;28;19966;-63
2023/06/18 06:25:17;;;;;;;;;;;;;;;25.10;44.30;100738.41;4151082;28;20026;-62
2023/06/18 06:27:18;;;;;;;;;;;;;;;25.10;44.46;100748.34;4151844;28;19930;-62
2023/06/18 06:29:20;;;;;;;;;;;;;;;25.09;44.26;100739.41;4167013;28;19929;-62
2023/06/18 06:31:22;;;;;;;;;;;;;;;25.11;44.64;100747.34;4123208;28;19991;-62
2023/06/18 06:33:23;;;;;;;;;;;;;;;25.11;44.45;100739.28;4121154;28;19927;-63
2023/06/18 06:35:27;;;;;;;;;;;;;;;25.10;44.45;100729.50;4131253;28;19964;-62
2023/06/18 06:37:30;;;;;;;;;;;;;;;25.10;44.54;100729.50;4198530;28;19924;-62
2023/06/18 06:39:32;;;;;;;;;;;;;;;25.11;44.14;100728.50;4150196;28;19988;-63
2023/06/18 06:41:34;;;;;;;;;;;;;;;25.10;44.49;100730.31;4182386;28;19968;-62
2023/06/18 06:43:35;;;;;;;;;;;;;;;25.11;44.39;100733.88;4191492;28;19926;-63
2023/06/18 06:45:37;;;;;;;;;;;;;;;25.12;44.47;100746.34;4141225;28;19928;-63
2023/06/18 06:47:40;;;;;;;;;;;;;;;25.11;44.56;100742.78;4198510;28;19925;-63
2023/06/18 06:49:41;;;;;;;;;;;;;;;25.12;44.78;100746.34;4168435;28;20387;-63
2023/06/18 06:51:43;;;;;;;;;;;;;;;25.11;44.80;100740.09;4174485;28;19924;-63
2023/06/18 06:53:44;;;;;;;;;;;;;;;25.10;44.69;100746.47;4191365;28;20091;-62
2023/06/18 06:55:49;;;;;;;;;;;;;;;25.12;44.49;100746.34;4141243;28;19930;-62
2023/06/18 06:57:50;;;;;;;;;;;;;;;25.12;44.72;100747.19;4198394;28;20392;-63
2023/06/18 06:59:52;;;;;;;;;;;;;;;25.12;44.71;100746.34;4164645;28;19926;-62
2023/06/18 07:01:53;;;;;;;;;;;;;;;25.11;44.49;100744.66;4167502;28;19924;-61
2023/06/18 07:03:55;;;;;;;;;;;;;;;25.11;45.11;100742.78;4194087;28;19928;-62
2023/06/18 07:05:56;;;;;;;;;;;;;;;25.11;44.97;100745.47;4137848;28;19938;-62
2023/06/18 07:07:58;;;;;;;;;;;;;;;25.09;44.34;100747.47;4198325;28;20094;-63
2023/06/18 07:10:00;;;;;;;;;;;;;;;25.10;44.86;100735.72;4173962;28;19933;-63
2023/06/18 07:12:02;;;;;;;;;;;;;;;25.09;45.00;100738.56;4158884;28;20327;-62
2023/06/18 07:14:04;;;;;;;;;;;;;;;25.09;44.82;100739.41;4198087;28;19928;-62
2023/06/18 07:16:05;;;;;;;;;;;;;;;25.08;44.98;100736.84;4136164;28;19926;-63
2023/06/18 07:18:07;;;;;;;;;;;;;;;25.08;44.95;100739.56;4196762;28;19928;-63
2023/06/18 07:20:09;;;;;;;;;;;;;;;25.07;44.88;100729.78;4181019;28;19924;-64
2023/06/18 07:22:10;;;;;;;;;;;;;;;25.07;45.05;100741.41;4150205;28;19929;-63
2023/06/18 07:24:12;;;;;;;;;;;;;;;25.08;44.86;100745.81;4197837;28;20340;-62
2023/06/18 07:26:13;;;;;;;;;;;;;;;25.09;44.88;100744.78;4144732;28;19940;-63
2023/06/18 07:28:15;;;;;;;;;;;;;;;25.10;44.74;100742.94;4187822;28;19924;-63
2023/06/18 07:30:16;;;;;;;;;;;;;;;25.11;44.96;100744.66;4189426;28;19928;-63
2023/06/18 07:32:18;;;;;;;;;;;;;;;25.12;44.84;100749.03;4140949;28;20366;-62
2023/06/18 07:34:19;;;;;;;;;;;;;;;25.14;44.63;100749.72;4197800;28;20023;-62
2023/06/18 07:36:21;;;;;;;;;;;;;;;25.14;44.67;100747.03;4153217;28;19996;-62
2023/06/18 07:38:23;;;;;;;;;;;;;;;25.15;44.74;100743.34;4178657;28;19946;-61
2023/06/18 07:40:25;;;;;;;;;;;;;;;25.13;45.21;100738.13;4189367;28;20320;-62
2023/06/18 07:42:27;;;;;;;;;;;;;;;25.14;44.97;100737.13;4140586;28;20044;-63
2023/06/18 07:44:29;;;;;;;;;;;;;;;25.16;44.66;100731.59;4197583;28;19924;-63
2023/06/18 07:46:31;;;;;;;;;;;;;;;25.16;44.91;100727.03;4161229;28;19930;-62
2023/06/18 07:48:32;;;;;;;;;;;;;;;25.16;45.53;100727.03;4170574;28;19924;-63
2023/06/18 07:50:35;;;;;;;;;;;;;;;25.17;45.24;100733.28;4189200;28;19931;-62
2023/06/18 07:52:36;;;;;;;;;;;;;;;25.17;45.38;100735.97;4140419;28;19930;-63
2023/06/18 07:54:38;;;;;;;;;;;;;;;25.17;45.21;100735.97;4197177;28;19924;-64
2023/06/18 07:56:40;;;;;;;;;;;;;;;25.18;45.09;100734.97;4147010;28;19979;-62
2023/06/18 07:58:42;;;;;;;;;;;;;;;25.19;45.05;100742.06;4162681;28;19959;-64
2023/06/18 08:00:44;;;;;;;;;;;;;;;25.21;44.94;100748.13;4195638;28;19924;-63
2023/06/18 08:02:46;;;;;;;;;;;;;;;25.23;44.81;100748.84;4135156;28;19972;-62
2023/06/18 08:04:47;;;;;;;;;;;;;;;25.25;44.63;100751.38;4196774;28;19928;-62
2023/06/18 08:06:50;;;;;;;;;;;;;;;25.24;44.51;100734.38;4176815;28;20019;-62
2023/06/18 08:08:51;;;;;;;;;;;;;;;25.26;44.66;100728.84;4154951;28;19932;-62
2023/06/18 08:10:53;;;;;;;;;;;;;;;25.26;45.13;100726.16;4196129;28;19925;-62
2023/06/18 08:12:55;;;;;;;;;;;;;;;25.25;44.86;100736.09;4138243;28;19926;-62
2023/06/18 08:14:56;;;;;;;;;;;;;;;25.25;44.69;100725.31;4193256;28;20018;-62
2023/06/18 08:17:00;;;;;;;;;;;;;;;25.26;44.61;100721.59;4183874;28;20288;-62
2023/06/18 08:19:01;;;;;;;;;;;;;;;25.27;44.77;100717.06;4147339;28;19986;-63
2023/06/18 08:21:03;;;;;;;;;;;;;;;25.28;44.69;100714.22;4195967;28;19932;-63
2023/06/18 08:23:05;;;;;;;;;;;;;;;25.30;44.91;100716.75;4145584;28;19948;-62
2023/06/18 08:25:06;;;;;;;;;;;;;;;25.30;44.69;100717.63;4185279;28;20015;-62
2023/06/18 08:27:08;;;;;;;;;;;;;;;25.32;45.09;100722.84;4188558;28;19969;-63
2023/06/18 08:29:10;;;;;;;;;;;;;;;25.33;44.76;100717.31;4170098;28;19983;-62
2023/06/18 08:31:11;;;;;;;;;;;;;;;25.35;44.85;100719.88;4111695;28;20399;-63
2023/06/18 08:33:13;;;;;;;;;;;;;;;25.34;45.07;100716.31;4154711;28;19931;-62
2023/06/18 08:35:15;;;;;;;;;;;;;;;25.34;44.73;100715.47;4132991;28;19991;-61
2023/06/18 08:37:16;;;;;;;;;;;;;;;25.32;44.77;100709.38;4119681;28;20287;-62
2023/06/18 08:39:18;;;;;;;;;;;;;;;25.32;44.53;100712.09;4169420;28;19930;-63
2023/06/18 08:41:19;;;;;;;;;;;;;;;25.32;44.74;100707.56;4111768;28;20021;-61
2023/06/18 08:43:26;;;;;;;;;;;;;;;25.32;44.83;100699.50;4145899;28;19924;-62
2023/06/18 08:45:28;;;;;;;;;;;;;;;25.32;44.81;100695.94;4137936;28;19937;-64
2023/06/18 08:47:32;;;;;;;;;;;;;;;25.31;44.63;100691.53;4119247;28;20017;-63
2023/06/18 08:49:34;;;;;;;;;;;;;;;25.31;44.76;100694.22;4168939;28;20291;-64
2023/06/18 08:51:37;;;;;;;;;;;;;;;25.28;45.14;100697.25;4112138;28;19930;-64
2023/06/18 08:53:49;;;;;;;;;;;;;;;25.27;44.76;100699.06;4143930;28;19932;-63
2023/06/18 08:55:51;;;;;;;;;;;;;;;25.26;44.47;100688.47;4136267;28;19926;-62
2023/06/18 08:58:03;;;;;;;;;;;;;;;25.25;44.83;100687.63;4119258;28;20343;-63
2023/06/18 09:00:06;;;;;;;;;;;;;;;25.27;45.02;100690.16;4168392;28;19930;-63
2023/06/18 09:02:10;;;;;;;;;;;;;;;25.26;44.68;100689.28;4112180;28;19937;-63
2023/06/18 09:04:12;;;;;;;;;;;;;;;25.25;44.98;100679.56;4152472;28;20409;-63
2023/06/18 09:06:14;;;;;;;;;;;;;;;25.26;44.86;100685.78;4134865;28;19926;-64
2023/06/18 09:08:16;;;;;;;;;;;;;;;25.26;44.56;100689.28;4119443;28;19934;-63
2023/06/18 09:10:18;;;;;;;;;;;;;;;25.27;44.65;100682.91;4168176;28;20409;-63
2023/06/18 09:12:20;;;;;;;;;;;;;;;25.29;44.85;100690.88;4112253;28;19926;-64
2023/06/18 09:14:23;;;;;;;;;;;;;;;25.29;44.73;100680.94;4144763;28;19924;-63
2023/06/18 09:16:24;;;;;;;;;;;;;;;25.29;44.76;100680.94;4141354;28;20226;-63
2023/06/18 09:18:26;;;;;;;;;;;;;;;25.30;44.76;100685.31;4117712;28;20020;-63
2023/06/18 09:20:28;;;;;;;;;;;;;;;25.30;44.65;100684.47;4168586;28;19925;-63
2023/06/18 09:22:29;;;;;;;;;;;;;;;25.30;44.94;100682.63;4112412;28;20001;-63
2023/06/18 09:24:33;;;;;;;;;;;;;;;25.29;44.73;100686.31;4136827;28;19931;-63
2023/06/18 09:26:35;;;;;;;;;;;;;;;25.29;44.84;100677.41;4148746;28;19930;-63
2023/06/18 09:28:36;;;;;;;;;;;;;;;25.29;45.12;100680.94;4112715;28;19927;-63
2023/06/18 09:30:47;;;;;;;;;;;;;;;25.30;44.75;100679.06;4173446;28;19928;-63
2023/06/18 09:32:49;;;;;;;;;;;;;;;25.29;44.85;100675.56;4112476;28;19926;-64
2023/06/18 09:34:51;;;;;;;;;;;;;;;25.29;44.73;100670.16;4136296;28;19979;-63
2023/06/18 09:36:53;;;;;;;;;;;;;;;25.29;45.36;100672.84;4150783;28;20009;-63
2023/06/18 09:38:54;;;;;;;;;;;;;;;25.28;45.12;100673.00;4112227;28;20018;-64
2023/06/18 09:40:56;;;;;;;;;;;;;;;25.28;45.24;100675.72;4173123;28;19924;-64
2023/06/18 09:43:00;;;;;;;;;;;;;;;25.27;44.88;100664.06;4145340;28;19926;-64
2023/06/18 09:45:02;;;;;;;;;;;;;;;25.28;45.14;100665.78;4131275;28;19926;-63
2023/06/18 09:47:10;;;;;;;;;;;;;;;25.28;45.26;100656.88;4160444;28;20302;-64
2023/06/18 09:49:13;;;;;;;;;;;;;;;25.29;44.99;100666.63;4115048;28;19926;-64
2023/06/18 09:51:15;;;;;;;;;;;;;;;25.31;44.87;100664.63;4175160;28;19925;-64
2023/06/18 09:53:17;;;;;;;;;;;;;;;25.31;44.69;100662.78;4116212;28;20373;-64
2023/06/18 09:55:29;;;;;;;;;;;;;;;25.33;44.68;100659.94;4129734;28;19930;-63
2023/06/18 09:57:48;;;;;;;;;;;;;;;25.34;44.64;100667.84;4155443;28;19926;-63
2023/06/18 10:00:08;;;;;;;;;;;;;;;25.36;44.33;100660.47;4119508;28;19931;-64
2023/06/18 10:02:13;;;;;;;;;;;;;;;25.37;44.45;100666.69;4171742;28;19934;-63
2023/06/18 10:04:16;;;;;;;;;;;;;;;25.38;44.20;100662.22;4114595;28;20013;-64
2023/06/18 10:06:20;;;;;;;;;;;;;;;25.28;44.95;100641.53;4156900;28;19925;-63
2023/06/18 10:08:21;;;;;;;;;;;;;;;25.36;44.64;100659.66;4134579;28;19964;-63
2023/06/18 10:10:23;;;;;;;;;;;;;;;25.38;44.44;100659.53;4120422;28;19939;-64
2023/06/18 10:12:24;;;;;;;;;;;;;;;25.39;44.23;100659.34;4171691;28;19926;-64
2023/06/18 10:14:27;;;;;;;;;;;;;;;25.42;44.60;100659.06;4114093;28;19998;-64
2023/06/18 10:16:29;;;;;;;;;;;;;;;25.43;44.14;100668.84;4149744;28;19925;-63
2023/06/18 10:18:30;;;;;;;;;;;;;;;25.45;44.29;100668.69;4142241;28;19930;-64
2023/06/18 10:20:33;;;;;;;;;;;;;;;25.44;44.46;100669.66;4120505;28;19961;-63
2023/06/18 10:22:36;;;;;;;;;;;;;;;25.45;44.31;100663.28;4171371;28;19959;-63
2023/06/18 10:24:43;;;;;;;;;;;;;;;25.46;44.62;100667.69;4113373;28;19926;-63
2023/06/18 10:26:45;;;;;;;;;;;;;;;25.47;44.58;100659.44;4121744;28;20327;-63
2023/06/18 10:28:51;;;;;;;;;;;;;;;25.47;44.63;100648.66;4169459;28;19964;-63